ARCT2: Red River, ARthur City

Data processed at Fri Jan 05 2018 23:29


All information presented herein is the property of the government of the United States of America and may be revised or deleted at any time without prior notice.
Dissemination of this information without the expressed written consent of the Public Affairs Office, Tulsa District U.S. Army Corps of Engineers is strictly prohibited.
These data are gathered electronically and, as presented, have not undergone any form of quality control. These data are not guaranteed to be valid or correct.
Go to home page.
Go to station list.

Upstream stations:

Downstream station:
Previous Day
Next Day
Current Day
    
SHEF ID:       ARCT2     Red River at Arthur City, TX
STATION TYPE:  

               PRECIP     STAGE  STAGE(2)  RIV-FLOW  BAT-LOAD
                   in        ft        ft       cfs      volt
              Ccp-Rev   Ccp-Rev   Ccp-Rev   Ccp-Rev   Ccp-Rev
(US/Central)
01/03 00:00      0.00      6.71      6.80      3855     12.49
01/03 01:00      0.00      6.82      6.91      4015     12.49
01/03 02:00      0.00      6.91      7.02      4148     12.49
01/03 03:00      0.00      7.01      7.09      4298     12.41
01/03 04:00      0.00      7.09      7.20      4418     12.41
01/03 05:00      0.00      7.16      7.26      4525     12.41
01/03 06:00      0.00      7.24      7.33      4649     12.33
01/03 07:00      0.00      7.30      7.37      4744     12.33
01/03 08:00      0.00      7.35      7.44      4823     12.33
01/03 09:00      0.00      7.39      7.50      4887     13.68
01/03 10:00      0.00      7.43      7.52      4952     14.88
01/03 11:00      0.00      7.46      7.55      5000     14.56
01/03 12:00      0.00      7.48      7.58      5033     14.48
01/03 13:00      0.00      7.52      7.60      5098     14.32
01/03 14:00      0.00      7.53      7.62      5115     14.32
01/03 15:00      0.00      7.54      7.62      5131     14.32
01/03 16:00      0.00      7.57      7.63      5181     14.16
01/03 17:00      0.00      7.57      7.67      5181     14.08
01/03 18:00      0.00      7.59      7.66      5214     13.05
01/03 19:00      0.00      7.59      7.66      5214     12.65
01/03 20:00      0.00      7.59      7.68      5214     12.65
01/03 21:00      0.00      7.60      7.68      5231     12.57
01/03 22:00      0.00      7.61      7.71      5248     12.57
01/03 23:00      0.00      7.61      7.68      5248     12.57